createdAt,value
2022-10-21T00:02:20.688Z,12.92
2022-10-21T00:04:48.224Z,13.03
2022-10-21T00:07:15.755Z,12.47
2022-10-21T00:09:43.260Z,12.43
2022-10-21T00:12:10.808Z,12.34
2022-10-21T00:14:38.304Z,12.20
2022-10-21T00:17:05.861Z,12.07
2022-10-21T00:19:34.843Z,12.30
2022-10-21T00:22:02.385Z,12.94
2022-10-21T00:24:29.922Z,12.67
2022-10-21T00:26:57.567Z,12.41
2022-10-21T00:29:25.093Z,12.50
2022-10-21T00:31:54.639Z,12.20
2022-10-21T00:34:25.859Z,11.91
2022-10-21T00:36:57.284Z,11.80
2022-10-21T00:39:24.807Z,11.88
2022-10-21T00:41:52.339Z,12.16
2022-10-21T00:44:19.868Z,12.38
2022-10-21T00:46:53.031Z,13.03
2022-10-21T00:49:24.328Z,13.31
2022-10-21T00:51:58.369Z,13.19
2022-10-21T00:54:27.404Z,13.07
2022-10-21T00:56:57.071Z,12.96
2022-10-21T00:59:26.189Z,12.90
2022-10-21T01:01:54.457Z,13.10
2022-10-21T01:04:22.239Z,12.92
2022-10-21T01:06:50.816Z,13.00
2022-10-21T01:09:20.925Z,12.90
2022-10-21T01:11:50.124Z,13.09
2022-10-21T01:14:43.258Z,13.08
2022-10-21T01:17:40.218Z,12.92
2022-10-21T01:20:38.293Z,13.49
2022-10-21T01:23:35.026Z,13.12
2022-10-21T01:26:26.261Z,13.01
2022-10-21T01:29:15.253Z,12.61
2022-10-21T01:31:47.908Z,12.34
2022-10-21T01:34:22.201Z,12.26
2022-10-21T01:36:56.092Z,12.32
2022-10-21T01:39:28.228Z,11.86
2022-10-21T01:42:03.522Z,12.24
2022-10-21T01:44:37.943Z,11.94
2022-10-21T01:47:12.364Z,11.65
2022-10-21T01:49:43.111Z,11.93
2022-10-21T01:52:13.433Z,11.78
2022-10-21T01:54:44.863Z,11.72
2022-10-21T01:57:16.594Z,12.03
2022-10-21T01:59:45.471Z,12.30
2022-10-21T02:02:16.256Z,12.00
2022-10-21T02:04:46.934Z,12.22
2022-10-21T02:07:14.663Z,11.90
2022-10-21T02:09:42.161Z,11.77
2022-10-21T02:12:11.354Z,11.98
2022-10-21T02:14:44.943Z,11.90
2022-10-21T02:17:17.205Z,12.02
2022-10-21T02:19:46.382Z,12.12
2022-10-21T02:22:18.174Z,12.30
2022-10-21T02:24:52.756Z,12.31
2022-10-21T02:27:21.247Z,12.29
2022-10-21T02:29:50.665Z,11.89
2022-10-21T02:32:28.016Z,11.59
2022-10-21T02:35:09.797Z,11.63
2022-10-21T02:37:44.375Z,12.27
2022-10-21T02:40:17.852Z,12.01
2022-10-21T02:42:48.950Z,11.78
2022-10-21T02:45:18.794Z,11.89
2022-10-21T02:47:49.763Z,12.29
2022-10-21T02:50:17.785Z,12.67
2022-10-21T02:52:45.311Z,12.34
2022-10-21T02:55:13.311Z,12.23
2022-10-21T02:57:41.335Z,11.94
2022-10-21T03:00:10.262Z,12.21
2022-10-21T03:02:37.845Z,12.62
2022-10-21T03:05:07.615Z,12.81
2022-10-21T03:07:35.132Z,12.76
2022-10-21T03:10:02.703Z,12.77
2022-10-21T03:12:30.238Z,13.08
2022-10-21T03:14:57.846Z,12.81
2022-10-21T03:17:25.609Z,13.12
2022-10-21T03:19:53.252Z,13.02
2022-10-21T03:22:22.133Z,13.13
2022-10-21T03:24:49.638Z,12.92
2022-10-21T03:27:17.314Z,13.02
2022-10-21T03:29:44.831Z,13.21
2022-10-21T03:32:12.361Z,13.28
2022-10-21T03:34:39.873Z,13.52
2022-10-21T03:37:07.378Z,13.57
2022-10-21T03:39:36.248Z,13.73
2022-10-21T03:42:03.826Z,13.77
2022-10-21T03:44:31.360Z,13.72
2022-10-21T03:46:58.879Z,13.49
2022-10-21T03:49:26.586Z,13.46
2022-10-21T03:51:54.112Z,13.38
2022-10-21T03:54:21.834Z,13.57
2022-10-21T03:56:50.718Z,13.56
2022-10-21T03:59:18.433Z,13.48
2022-10-21T04:01:46.213Z,13.23
2022-10-21T04:04:13.749Z,13.38
2022-10-21T04:06:41.315Z,13.31
2022-10-21T04:09:09.006Z,13.27
2022-10-21T04:11:36.593Z,13.30
2022-10-21T04:14:05.624Z,13.57
2022-10-21T04:16:33.731Z,13.29
2022-10-21T04:19:01.654Z,12.84
2022-10-21T04:21:29.222Z,12.96
2022-10-21T04:23:56.775Z,13.20
2022-10-21T04:26:24.322Z,13.38
2022-10-21T04:28:51.876Z,13.54
2022-10-21T04:31:20.727Z,13.59
2022-10-21T04:33:48.252Z,13.42
2022-10-21T04:36:15.878Z,13.20
2022-10-21T04:38:43.422Z,12.56
2022-10-21T04:41:10.984Z,12.50
2022-10-21T04:43:39.364Z,12.40
2022-10-21T04:46:12.097Z,12.34
2022-10-21T04:48:41.219Z,12.31
2022-10-21T04:51:08.736Z,12.44
2022-10-21T04:53:36.291Z,12.57
2022-10-21T04:56:03.940Z,12.30
2022-10-21T04:58:31.521Z,11.98
2022-10-21T05:00:59.098Z,12.24
2022-10-21T05:03:26.639Z,12.57
2022-10-21T05:05:55.492Z,12.68
2022-10-21T05:08:23.287Z,12.40
2022-10-21T05:10:50.836Z,12.84
2022-10-21T05:13:18.343Z,12.86
2022-10-21T05:15:45.863Z,12.44
2022-10-21T05:18:13.396Z,12.40
2022-10-21T05:20:40.905Z,12.33
2022-10-21T05:23:09.788Z,12.30
2022-10-21T05:25:38.145Z,12.66
2022-10-21T05:28:05.794Z,12.80
2022-10-21T05:30:33.376Z,12.60
2022-10-21T05:33:00.914Z,12.57
2022-10-21T05:35:28.414Z,12.41
2022-10-21T05:37:55.959Z,12.66
2022-10-21T05:40:24.933Z,12.45
2022-10-21T05:42:52.436Z,12.54
2022-10-21T05:45:19.985Z,12.72
2022-10-21T05:47:47.752Z,12.72
2022-10-21T05:50:15.281Z,12.54
2022-10-21T05:52:43.055Z,12.59
2022-10-21T05:55:11.205Z,12.71
2022-10-21T05:57:40.571Z,12.54
2022-10-21T06:00:09.355Z,12.68
2022-10-21T06:02:37.185Z,12.63
2022-10-21T06:05:05.435Z,12.52
2022-10-21T06:07:32.939Z,12.42
2022-10-21T06:10:00.463Z,12.07
2022-10-21T06:12:27.990Z,11.98
2022-10-21T06:14:56.864Z,12.08
2022-10-21T06:17:24.387Z,11.89
2022-10-21T06:19:51.904Z,11.69
2022-10-21T06:22:19.412Z,11.76
2022-10-21T06:24:47.277Z,11.81
2022-10-21T06:27:14.989Z,11.81
2022-10-21T06:29:42.503Z,11.75
2022-10-21T06:32:12.037Z,11.74
2022-10-21T06:34:39.629Z,11.82
2022-10-21T06:37:07.125Z,12.01
2022-10-21T06:39:34.628Z,12.02
2022-10-21T06:42:02.095Z,12.32
2022-10-21T06:44:29.596Z,12.27
2022-10-21T06:46:57.108Z,12.45
2022-10-21T06:49:25.965Z,12.29
2022-10-21T06:51:53.693Z,12.89
2022-10-21T06:54:21.191Z,12.54
2022-10-21T06:56:48.717Z,12.25
2022-10-21T06:59:16.257Z,12.06
2022-10-21T07:02:00.526Z,12.09
2022-10-21T07:04:30.598Z,11.96
2022-10-21T07:06:58.380Z,11.96
2022-10-21T07:09:25.926Z,12.08
2022-10-21T07:11:53.499Z,12.32
2022-10-21T07:14:21.015Z,12.51
2022-10-21T07:16:49.071Z,12.25
2022-10-21T07:19:16.601Z,11.91
2022-10-21T07:21:46.175Z,11.97
2022-10-21T07:24:16.295Z,12.09
2022-10-21T07:26:45.134Z,12.20
2022-10-21T07:29:12.644Z,12.49
2022-10-21T07:31:40.527Z,12.84
2022-10-21T07:34:09.434Z,13.52
2022-10-21T07:36:39.064Z,14.02
2022-10-21T07:39:11.761Z,13.79
2022-10-21T07:41:42.163Z,13.61
2022-10-21T07:44:10.568Z,13.65
2022-10-21T07:46:38.938Z,14.06
2022-10-21T07:49:07.045Z,14.51
2022-10-21T07:51:34.561Z,15.27
2022-10-21T07:54:02.821Z,15.97
2022-10-21T07:56:33.760Z,16.04
2022-10-21T07:59:02.415Z,16.80
2022-10-21T08:01:30.132Z,16.93
2022-10-21T08:03:58.856Z,16.24
2022-10-21T08:06:27.684Z,15.95
2022-10-21T08:08:57.340Z,15.42
2022-10-21T08:11:26.179Z,15.24
2022-10-21T08:13:55.997Z,15.54
2022-10-21T08:16:24.208Z,16.09
2022-10-21T08:18:51.984Z,16.37
2022-10-21T08:21:19.601Z,16.51
2022-10-21T08:23:47.140Z,16.27
2022-10-21T08:26:16.532Z,16.36
2022-10-21T08:28:45.130Z,15.81
2022-10-21T08:31:15.791Z,15.58
2022-10-21T08:33:43.811Z,15.98
2022-10-21T08:36:14.384Z,15.95
2022-10-21T08:38:42.218Z,16.04
2022-10-21T08:41:28.673Z,16.23
2022-10-21T08:43:59.017Z,16.68
2022-10-21T08:46:32.819Z,16.91
2022-10-21T08:49:07.062Z,17.10
2022-10-21T08:51:40.869Z,17.26
2022-10-21T08:54:18.417Z,17.68
2022-10-21T08:56:47.955Z,17.75
2022-10-21T08:59:23.779Z,17.54
2022-10-21T09:02:00.097Z,17.05
2022-10-21T09:04:40.553Z,16.93
2022-10-21T09:07:15.002Z,17.24
2022-10-21T09:09:49.757Z,16.86
2022-10-21T09:12:26.015Z,16.75
2022-10-21T09:15:24.931Z,16.65
2022-10-21T09:18:19.664Z,16.92
2022-10-21T09:20:56.600Z,17.06
2022-10-21T09:23:54.141Z,17.68
2022-10-21T09:26:33.679Z,17.47
2022-10-21T09:29:03.563Z,17.67
2022-10-21T09:31:31.140Z,17.52
2022-10-21T09:34:04.597Z,17.70
2022-10-21T09:36:37.577Z,18.01
2022-10-21T09:39:11.518Z,18.05
2022-10-21T09:41:43.743Z,18.14
2022-10-21T09:44:17.023Z,18.58
2022-10-21T09:46:46.206Z,18.20
2022-10-21T09:52:12.885Z,17.74
2022-10-21T09:54:42.736Z,17.63
2022-10-21T09:57:15.367Z,17.77
2022-10-21T09:59:53.810Z,17.60
2022-10-21T10:02:28.805Z,17.17
2022-10-21T10:04:58.427Z,16.64
2022-10-21T10:07:34.511Z,16.54
2022-10-21T10:10:02.666Z,16.95
2022-10-21T10:12:31.125Z,16.88
2022-10-21T10:15:25.850Z,16.91
2022-10-21T10:17:58.054Z,16.91
2022-10-21T10:20:27.326Z,17.08
2022-10-21T10:23:20.006Z,17.26
2022-10-21T10:25:53.073Z,17.31
2022-10-21T10:28:25.701Z,17.59
2022-10-21T10:30:56.362Z,17.55
2022-10-21T10:33:27.580Z,17.76
2022-10-21T10:35:58.670Z,17.88
2022-10-21T10:38:30.749Z,18.27
2022-10-21T10:41:06.200Z,18.51
2022-10-21T10:43:36.111Z,19.07
2022-10-21T10:46:07.655Z,19.57
2022-10-21T10:48:39.489Z,20.08
2022-10-21T10:51:24.061Z,20.55
2022-10-21T10:54:02.190Z,20.91
2022-10-21T10:56:33.453Z,21.03
2022-10-21T10:59:09.891Z,21.15
2022-10-21T11:01:44.083Z,20.91
2022-10-21T11:04:18.333Z,20.86
2022-10-21T11:06:52.039Z,20.60
2022-10-21T11:09:23.829Z,20.48
2022-10-21T11:11:56.281Z,20.01
2022-10-21T11:14:24.239Z,20.03
2022-10-21T11:17:01.839Z,20.35
2022-10-21T11:19:43.822Z,20.34
2022-10-21T11:22:27.107Z,19.82
2022-10-21T11:25:05.663Z,19.49
2022-10-21T11:27:48.830Z,19.47
2022-10-21T11:30:19.768Z,19.59
2022-10-21T11:33:04.427Z,19.40
2022-10-21T11:35:42.254Z,19.53
2022-10-21T11:38:32.827Z,19.40
2022-10-21T11:41:09.102Z,19.33
2022-10-21T11:43:49.043Z,18.91
2022-10-21T11:46:23.415Z,18.93
2022-10-21T11:49:02.392Z,18.81
2022-10-21T11:51:42.800Z,19.12
2022-10-21T11:55:08.903Z,19.11
2022-10-21T11:57:43.992Z,18.67
2022-10-21T12:00:15.035Z,18.78
2022-10-21T12:02:44.765Z,19.56
2022-10-21T12:05:22.538Z,19.96
2022-10-21T12:08:12.985Z,20.01
2022-10-21T12:10:48.260Z,19.46
2022-10-21T12:13:21.276Z,19.44
2022-10-21T12:15:52.807Z,19.38
2022-10-21T12:18:23.760Z,19.36
2022-10-21T12:20:54.100Z,18.90
2022-10-21T12:23:24.485Z,19.26
2022-10-21T12:26:10.027Z,18.93
2022-10-21T12:28:43.232Z,19.31
2022-10-21T12:31:27.523Z,19.15
2022-10-21T12:33:55.859Z,19.33
2022-10-21T12:36:40.003Z,19.59
2022-10-21T12:39:12.628Z,19.10
2022-10-21T12:41:41.940Z,18.67
2022-10-21T12:44:30.293Z,18.72
2022-10-21T12:47:02.677Z,18.62
2022-10-21T12:49:33.474Z,18.94
2022-10-21T12:52:09.396Z,19.07
2022-10-21T12:54:43.920Z,18.17
2022-10-21T12:57:24.972Z,18.23
2022-10-21T12:59:52.992Z,18.07
2022-10-21T13:02:29.443Z,17.75
2022-10-21T13:04:59.243Z,17.67
2022-10-21T13:07:36.381Z,17.56
2022-10-21T13:10:35.294Z,17.94
2022-10-21T13:13:30.712Z,18.09
2022-10-21T13:15:58.979Z,18.40
2022-10-21T13:18:55.413Z,18.63
2022-10-21T13:21:38.218Z,19.60
2022-10-21T13:24:20.866Z,20.36
2022-10-21T13:26:51.043Z,21.05
2022-10-21T13:29:42.131Z,21.30
2022-10-21T13:32:31.948Z,21.65
2022-10-21T13:35:31.236Z,21.24
2022-10-21T13:38:03.437Z,21.06
2022-10-21T13:40:37.458Z,20.91
2022-10-21T13:43:08.927Z,21.02
2022-10-21T13:45:44.052Z,21.03
2022-10-21T13:48:16.056Z,21.13
2022-10-21T13:50:45.410Z,21.40
2022-10-21T13:53:24.521Z,22.38
2022-10-21T13:55:59.931Z,22.74
2022-10-21T13:58:29.689Z,22.17
2022-10-21T14:00:59.234Z,22.24
2022-10-21T14:03:27.935Z,20.87
2022-10-21T14:05:58.976Z,20.66
2022-10-21T14:08:29.671Z,20.10
2022-10-21T14:10:59.875Z,19.74
2022-10-21T14:13:32.307Z,19.28
2022-10-21T14:16:01.891Z,18.68
2022-10-21T14:18:35.022Z,18.42
2022-10-21T14:21:05.940Z,18.65
2022-10-21T14:23:35.362Z,18.20
2022-10-21T14:26:07.098Z,18.11
2022-10-21T14:28:35.972Z,18.35
2022-10-21T14:33:43.241Z,18.24
2022-10-21T14:36:15.284Z,18.24
2022-10-21T14:38:51.512Z,18.18
2022-10-21T14:41:22.229Z,18.35
2022-10-21T14:43:52.891Z,18.25
2022-10-21T14:46:22.282Z,18.06
2022-10-21T14:48:53.524Z,18.07
2022-10-21T14:51:23.315Z,18.05
2022-10-21T14:53:56.007Z,17.70
2022-10-21T14:56:29.612Z,17.44
2022-10-21T14:58:59.161Z,17.39
2022-10-21T15:01:28.464Z,17.59
2022-10-21T15:04:00.260Z,17.41
2022-10-21T15:06:29.989Z,17.41
2022-10-21T15:09:06.205Z,17.29
2022-10-21T15:11:41.548Z,17.22
2022-10-21T15:14:32.966Z,17.30
2022-10-21T15:17:04.401Z,17.07
2022-10-21T15:19:44.018Z,17.14
2022-10-21T15:22:24.662Z,16.84
2022-10-21T15:24:53.619Z,17.20
2022-10-21T15:27:27.310Z,17.28
2022-10-21T15:29:54.980Z,17.19
2022-10-21T15:32:26.983Z,16.97
2022-10-21T15:34:57.205Z,17.26
2022-10-21T15:37:24.841Z,17.17
2022-10-21T15:39:52.346Z,17.58
2022-10-21T15:42:20.092Z,17.73
2022-10-21T15:44:50.053Z,17.53
2022-10-21T15:47:17.616Z,17.60
2022-10-21T15:49:47.268Z,17.58
2022-10-21T15:52:15.101Z,17.66
2022-10-21T15:54:42.797Z,17.44
2022-10-21T15:57:18.120Z,17.21
2022-10-21T15:59:46.254Z,17.08
2022-10-21T16:02:17.054Z,16.68
2022-10-21T16:04:46.665Z,16.59
2022-10-21T16:07:21.522Z,16.58
2022-10-21T16:09:49.202Z,17.05
2022-10-21T16:12:19.852Z,16.57
2022-10-21T16:14:47.433Z,16.59
2022-10-21T16:17:15.341Z,16.60
2022-10-21T16:19:43.034Z,16.45
2022-10-21T16:22:17.274Z,16.66
2022-10-21T16:24:44.800Z,17.06
2022-10-21T16:27:13.129Z,17.19
2022-10-21T16:29:40.993Z,17.22
2022-10-21T16:32:11.669Z,17.31
2022-10-21T16:34:39.232Z,17.28
2022-10-21T16:37:20.550Z,17.16
2022-10-21T16:39:48.054Z,16.72
2022-10-21T16:42:15.566Z,16.64
2022-10-21T16:44:44.694Z,16.67
2022-10-21T16:47:17.746Z,16.54
2022-10-21T16:49:46.052Z,16.13
2022-10-21T16:52:13.960Z,16.46
2022-10-21T16:54:46.447Z,16.37
2022-10-21T16:57:15.978Z,16.35
2022-10-21T16:59:43.462Z,16.15
2022-10-21T17:02:16.137Z,16.29
2022-10-21T17:04:43.831Z,16.56
2022-10-21T17:07:11.488Z,16.88
2022-10-21T17:09:39.001Z,16.86
2022-10-21T17:12:08.203Z,16.95
2022-10-21T17:17:08.170Z,16.99
2022-10-21T17:19:35.729Z,16.93
2022-10-21T17:22:03.316Z,16.09
2022-10-21T17:24:30.836Z,16.02
2022-10-21T17:26:58.372Z,15.86
2022-10-21T17:29:27.371Z,15.62
2022-10-21T17:31:54.925Z,15.61
2022-10-21T17:34:28.449Z,15.65
2022-10-21T17:36:56.221Z,15.61
2022-10-21T17:39:24.093Z,15.57
2022-10-21T17:41:51.746Z,15.76
2022-10-21T17:44:19.626Z,15.84
2022-10-21T17:46:49.443Z,15.85
2022-10-21T17:49:17.018Z,15.41
2022-10-21T17:51:44.662Z,15.25
2022-10-21T17:54:12.189Z,14.94
2022-10-21T17:56:41.554Z,14.98
2022-10-21T17:59:09.412Z,15.05
2022-10-21T18:01:36.961Z,15.10
2022-10-21T18:04:06.256Z,14.96
2022-10-21T18:06:34.055Z,15.08
2022-10-21T18:09:03.181Z,15.10
2022-10-21T18:11:30.813Z,15.19
2022-10-21T18:13:58.337Z,15.33
2022-10-21T18:16:25.962Z,15.03
2022-10-21T18:18:57.234Z,14.81
2022-10-21T18:21:28.992Z,14.87
2022-10-21T18:23:56.516Z,15.05
2022-10-21T18:26:26.483Z,14.99
2022-10-21T18:28:57.127Z,15.13
2022-10-21T18:31:26.152Z,15.14
2022-10-21T18:33:56.111Z,14.92
2022-10-21T18:36:24.518Z,14.89
2022-10-21T18:38:53.525Z,15.04
2022-10-21T18:41:22.012Z,15.25
2022-10-21T18:43:51.308Z,15.53
2022-10-21T18:46:19.051Z,15.39
2022-10-21T18:48:46.940Z,15.12
2022-10-21T18:51:16.444Z,14.88
2022-10-21T18:53:48.437Z,14.82
2022-10-21T18:56:21.987Z,15.04
2022-10-21T18:58:49.850Z,15.10
2022-10-21T19:01:18.951Z,15.05
2022-10-21T19:03:46.709Z,15.19
2022-10-21T19:06:19.474Z,15.43
2022-10-21T19:08:47.801Z,15.35
2022-10-21T19:11:15.431Z,15.16
2022-10-21T19:13:44.289Z,15.03
2022-10-21T19:16:11.857Z,15.04
2022-10-21T19:18:39.470Z,14.84
2022-10-21T19:21:07.602Z,14.67
2022-10-21T19:23:35.451Z,14.64
2022-10-21T19:26:04.024Z,14.59
2022-10-21T19:28:32.728Z,14.61
2022-10-21T19:31:02.064Z,14.83
2022-10-21T19:33:30.889Z,14.85
2022-10-21T19:36:00.554Z,14.49
2022-10-21T19:38:43.163Z,14.57
2022-10-21T19:41:13.393Z,14.57
2022-10-21T19:43:41.054Z,14.40
2022-10-21T19:46:11.717Z,14.18
2022-10-21T19:48:39.284Z,14.54
2022-10-21T19:51:08.740Z,14.58
2022-10-21T19:53:38.147Z,14.36
2022-10-21T19:56:07.329Z,14.12
2022-10-21T19:58:35.340Z,14.02
2022-10-21T20:01:03.110Z,14.24
2022-10-21T20:03:32.447Z,14.43
2022-10-21T20:05:59.966Z,14.65
2022-10-21T20:08:27.715Z,14.53
2022-10-21T20:11:02.617Z,14.20
2022-10-21T20:13:30.578Z,14.07
2022-10-21T20:15:58.904Z,13.79
2022-10-21T20:18:27.687Z,13.85
2022-10-21T20:20:56.871Z,13.92
2022-10-21T20:23:24.624Z,13.63
2022-10-21T20:25:55.206Z,13.71
2022-10-21T20:28:23.399Z,13.90
2022-10-21T20:30:57.869Z,13.86
2022-10-21T20:33:25.813Z,13.82
2022-10-21T20:35:53.637Z,13.93
2022-10-21T20:38:22.957Z,14.16
2022-10-21T20:40:54.612Z,14.31
2022-10-21T20:43:22.207Z,14.15
2022-10-21T20:45:49.739Z,14.32
2022-10-21T20:48:17.265Z,14.43
2022-10-21T20:50:44.857Z,14.73
2022-10-21T20:53:12.382Z,14.55
2022-10-21T20:55:42.756Z,14.61
2022-10-21T20:58:10.251Z,14.50
2022-10-21T21:00:38.027Z,14.19
2022-10-21T21:03:05.560Z,14.15
2022-10-21T21:05:38.121Z,14.56
2022-10-21T21:08:06.878Z,14.33
2022-10-21T21:10:34.460Z,14.79
2022-10-21T21:13:03.414Z,14.89
2022-10-21T21:15:30.987Z,15.11
2022-10-21T21:18:01.308Z,15.08
2022-10-21T21:20:28.984Z,15.08
2022-10-21T21:22:56.740Z,15.17
2022-10-21T21:25:24.233Z,15.19
2022-10-21T21:27:51.742Z,15.40
2022-10-21T21:30:20.732Z,15.47
2022-10-21T21:32:48.227Z,15.40
2022-10-21T21:35:15.964Z,15.45
2022-10-21T21:37:43.511Z,15.45
2022-10-21T21:40:12.286Z,15.27
2022-10-21T21:42:40.190Z,15.07
2022-10-21T21:45:08.916Z,15.00
2022-10-21T21:47:37.813Z,15.01
2022-10-21T21:50:05.862Z,14.68
2022-10-21T21:52:33.441Z,14.53
2022-10-21T21:55:00.935Z,14.47
2022-10-21T21:57:28.790Z,14.26
2022-10-21T21:59:56.403Z,14.08
2022-10-21T22:02:23.920Z,14.23
2022-10-21T22:04:52.852Z,14.29
2022-10-21T22:07:20.586Z,14.61
2022-10-21T22:09:49.175Z,14.71
2022-10-21T22:12:17.834Z,14.64
2022-10-21T22:14:46.321Z,14.36
2022-10-21T22:17:14.062Z,14.25
2022-10-21T22:19:41.588Z,14.10
2022-10-21T22:22:10.498Z,14.48
2022-10-21T22:24:38.450Z,13.94
2022-10-21T22:27:06.135Z,14.45
2022-10-21T22:29:33.697Z,14.68
2022-10-21T22:32:01.441Z,14.66
2022-10-21T22:34:28.992Z,14.69
2022-10-21T22:36:56.557Z,14.32
2022-10-21T22:39:25.622Z,14.37
2022-10-21T22:41:53.140Z,14.26
2022-10-21T22:44:22.032Z,14.11
2022-10-21T22:46:49.708Z,14.09
2022-10-21T22:49:17.810Z,14.20
2022-10-21T22:51:45.416Z,13.95
2022-10-21T22:54:29.680Z,14.13
2022-10-21T22:57:01.911Z,13.92
2022-10-21T22:59:29.409Z,13.74
2022-10-21T23:01:56.917Z,14.05
2022-10-21T23:04:24.420Z,13.82
2022-10-21T23:06:51.951Z,14.07
2022-10-21T23:09:19.542Z,14.10
2022-10-21T23:11:47.418Z,14.41
2022-10-21T23:14:16.353Z,14.58
2022-10-21T23:16:44.121Z,14.12
2022-10-21T23:21:44.173Z,14.46
2022-10-21T23:24:12.035Z,14.32
2022-10-21T23:26:39.621Z,14.31
2022-10-21T23:29:07.155Z,14.26
2022-10-21T23:31:36.043Z,14.11
2022-10-21T23:34:05.760Z,14.23
2022-10-21T23:36:34.453Z,14.33
2022-10-21T23:39:02.328Z,14.65
2022-10-21T23:41:30.147Z,15.01
2022-10-21T23:43:57.694Z,15.01
2022-10-21T23:46:25.242Z,14.69
2022-10-21T23:48:54.126Z,14.62
2022-10-21T23:51:22.070Z,14.58
2022-10-21T23:53:49.592Z,14.51
2022-10-21T23:56:17.160Z,14.37
2022-10-21T23:58:44.695Z,14.53
